sensor_id;sensor_type;location;lat;lon;timestamp;temperature;humidity
21267;DHT22;10791;53.108;18.326;2023-02-03T00:04:46;-1.90;99.90
21267;DHT22;10791;53.108;18.326;2023-02-03T00:09:50;-1.90;99.90
21267;DHT22;10791;53.108;18.326;2023-02-03T00:14:53;-2.00;99.90
21267;DHT22;10791;53.108;18.326;2023-02-03T00:19:57;-2.00;99.90
21267;DHT22;10791;53.108;18.326;2023-02-03T00:25:00;-2.00;99.90
21267;DHT22;10791;53.108;18.326;2023-02-03T00:30:04;-2.00;99.90
21267;DHT22;10791;53.108;18.326;2023-02-03T00:35:08;-2.00;99.90
21267;DHT22;10791;53.108;18.326;2023-02-03T00:40:12;-1.90;99.90
21267;DHT22;10791;53.108;18.326;2023-02-03T00:45:16;-2.00;99.90
21267;DHT22;10791;53.108;18.326;2023-02-03T00:50:19;-1.90;99.90
21267;DHT22;10791;53.108;18.326;2023-02-03T00:55:23;-1.90;99.90
21267;DHT22;10791;53.108;18.326;2023-02-03T01:00:26;-1.90;99.90
21267;DHT22;10791;53.108;18.326;2023-02-03T01:05:30;-1.90;99.90
21267;DHT22;10791;53.108;18.326;2023-02-03T01:10:33;-2.00;99.90
21267;DHT22;10791;53.108;18.326;2023-02-03T01:15:46;-2.00;99.90
21267;DHT22;10791;53.108;18.326;2023-02-03T01:20:50;-2.00;99.90
21267;DHT22;10791;53.108;18.326;2023-02-03T01:25:53;-2.00;99.90
21267;DHT22;10791;53.108;18.326;2023-02-03T01:30:56;-2.00;99.90
21267;DHT22;10791;53.108;18.326;2023-02-03T01:36:00;-1.90;99.90
21267;DHT22;10791;53.108;18.326;2023-02-03T01:41:06;-1.90;99.90
21267;DHT22;10791;53.108;18.326;2023-02-03T01:46:38;-1.80;99.90
21267;DHT22;10791;53.108;18.326;2023-02-03T01:51:45;-1.80;99.90
21267;DHT22;10791;53.108;18.326;2023-02-03T01:57:14;-1.70;99.90
21267;DHT22;10791;53.108;18.326;2023-02-03T02:02:18;-1.70;99.90
21267;DHT22;10791;53.108;18.326;2023-02-03T02:07:23;-1.70;99.90
21267;DHT22;10791;53.108;18.326;2023-02-03T02:12:27;-1.70;99.90
21267;DHT22;10791;53.108;18.326;2023-02-03T02:23:17;-1.60;99.90
21267;DHT22;10791;53.108;18.326;2023-02-03T02:39:32;-1.50;99.90
21267;DHT22;10791;53.108;18.326;2023-02-03T02:44:48;-1.50;99.90
21267;DHT22;10791;53.108;18.326;2023-02-03T02:55:25;-1.50;99.90
21267;DHT22;10791;53.108;18.326;2023-02-03T03:00:30;-1.50;99.90
21267;DHT22;10791;53.108;18.326;2023-02-03T03:05:35;-1.50;99.90
21267;DHT22;10791;53.108;18.326;2023-02-03T03:10:40;-1.50;99.90
21267;DHT22;10791;53.108;18.326;2023-02-03T03:15:46;-1.50;99.90
21267;DHT22;10791;53.108;18.326;2023-02-03T03:20:51;-1.40;99.90
21267;DHT22;10791;53.108;18.326;2023-02-03T03:26:21;-1.40;99.90
21267;DHT22;10791;53.108;18.326;2023-02-03T03:31:26;-1.40;99.90
21267;DHT22;10791;53.108;18.326;2023-02-03T03:36:41;-1.40;99.90
21267;DHT22;10791;53.108;18.326;2023-02-03T03:41:54;-1.40;99.90
21267;DHT22;10791;53.108;18.326;2023-02-03T03:47:09;-1.40;99.90
21267;DHT22;10791;53.108;18.326;2023-02-03T03:52:18;-1.40;99.90
21267;DHT22;10791;53.108;18.326;2023-02-03T03:57:40;-1.40;99.90
21267;DHT22;10791;53.108;18.326;2023-02-03T04:02:50;-1.40;99.90
21267;DHT22;10791;53.108;18.326;2023-02-03T04:07:55;-1.40;99.90
21267;DHT22;10791;53.108;18.326;2023-02-03T04:12:58;-1.30;99.90
21267;DHT22;10791;53.108;18.326;2023-02-03T04:18:01;-1.30;99.90
21267;DHT22;10791;53.108;18.326;2023-02-03T04:23:05;-1.30;99.90
21267;DHT22;10791;53.108;18.326;2023-02-03T04:28:08;-1.30;99.90
21267;DHT22;10791;53.108;18.326;2023-02-03T04:33:12;-1.30;99.90
21267;DHT22;10791;53.108;18.326;2023-02-03T04:38:15;-1.30;99.90
21267;DHT22;10791;53.108;18.326;2023-02-03T04:43:18;-1.30;99.90
21267;DHT22;10791;53.108;18.326;2023-02-03T04:48:21;-1.30;99.90
21267;DHT22;10791;53.108;18.326;2023-02-03T04:53:25;-1.40;99.90
21267;DHT22;10791;53.108;18.326;2023-02-03T04:58:28;-1.40;99.90
21267;DHT22;10791;53.108;18.326;2023-02-03T05:03:32;-1.40;99.90
21267;DHT22;10791;53.108;18.326;2023-02-03T05:08:35;-1.40;99.90
21267;DHT22;10791;53.108;18.326;2023-02-03T05:13:39;-1.30;99.90
21267;DHT22;10791;53.108;18.326;2023-02-03T05:18:42;-1.20;99.90
21267;DHT22;10791;53.108;18.326;2023-02-03T05:23:46;-1.20;99.90
21267;DHT22;10791;53.108;18.326;2023-02-03T05:28:49;-1.10;99.90
21267;DHT22;10791;53.108;18.326;2023-02-03T05:33:55;-1.10;99.90
21267;DHT22;10791;53.108;18.326;2023-02-03T05:38:58;-1.10;99.90
21267;DHT22;10791;53.108;18.326;2023-02-03T05:44:02;-1.00;99.90
21267;DHT22;10791;53.108;18.326;2023-02-03T05:49:05;-1.00;99.90
21267;DHT22;10791;53.108;18.326;2023-02-03T05:54:09;-0.90;99.90
21267;DHT22;10791;53.108;18.326;2023-02-03T05:59:12;-0.90;99.90
21267;DHT22;10791;53.108;18.326;2023-02-03T06:04:16;-0.90;99.90
21267;DHT22;10791;53.108;18.326;2023-02-03T06:09:19;-0.80;99.90
21267;DHT22;10791;53.108;18.326;2023-02-03T06:14:22;-0.80;99.90
21267;DHT22;10791;53.108;18.326;2023-02-03T06:19:26;-0.80;99.90
21267;DHT22;10791;53.108;18.326;2023-02-03T06:24:29;-0.70;99.90
21267;DHT22;10791;53.108;18.326;2023-02-03T06:29:32;-0.70;99.90
21267;DHT22;10791;53.108;18.326;2023-02-03T06:34:35;-0.60;99.90
21267;DHT22;10791;53.108;18.326;2023-02-03T06:39:38;-0.60;99.90
21267;DHT22;10791;53.108;18.326;2023-02-03T06:44:42;-0.50;99.90
21267;DHT22;10791;53.108;18.326;2023-02-03T06:49:45;-0.50;99.90
21267;DHT22;10791;53.108;18.326;2023-02-03T06:54:49;-0.40;99.90
21267;DHT22;10791;53.108;18.326;2023-02-03T06:59:52;-0.40;99.90
21267;DHT22;10791;53.108;18.326;2023-02-03T07:04:55;-0.30;99.90
21267;DHT22;10791;53.108;18.326;2023-02-03T07:10:00;-0.30;99.90
21267;DHT22;10791;53.108;18.326;2023-02-03T07:15:04;-0.20;99.90
21267;DHT22;10791;53.108;18.326;2023-02-03T07:20:07;-0.20;99.90
21267;DHT22;10791;53.108;18.326;2023-02-03T07:25:11;-0.10;99.90
21267;DHT22;10791;53.108;18.326;2023-02-03T07:30:15;-0.10;99.90
21267;DHT22;10791;53.108;18.326;2023-02-03T07:35:18;0.00;99.90
21267;DHT22;10791;53.108;18.326;2023-02-03T07:40:22;0.10;99.90
21267;DHT22;10791;53.108;18.326;2023-02-03T07:45:25;0.20;99.90
21267;DHT22;10791;53.108;18.326;2023-02-03T07:50:28;0.30;99.90
21267;DHT22;10791;53.108;18.326;2023-02-03T07:55:32;0.30;99.90
21267;DHT22;10791;53.108;18.326;2023-02-03T08:00:36;0.40;99.90
21267;DHT22;10791;53.108;18.326;2023-02-03T08:05:39;0.50;99.90
21267;DHT22;10791;53.108;18.326;2023-02-03T08:10:42;0.50;99.90
21267;DHT22;10791;53.108;18.326;2023-02-03T08:15:46;0.50;99.90
21267;DHT22;10791;53.108;18.326;2023-02-03T08:20:50;0.50;99.90
21267;DHT22;10791;53.108;18.326;2023-02-03T08:25:54;0.60;99.90
21267;DHT22;10791;53.108;18.326;2023-02-03T08:30:57;0.60;99.90
21267;DHT22;10791;53.108;18.326;2023-02-03T08:36:01;0.60;99.90
21267;DHT22;10791;53.108;18.326;2023-02-03T08:41:13;0.60;99.90
21267;DHT22;10791;53.108;18.326;2023-02-03T08:46:17;0.60;99.90
21267;DHT22;10791;53.108;18.326;2023-02-03T08:51:20;0.60;99.90
21267;DHT22;10791;53.108;18.326;2023-02-03T08:56:24;0.60;99.90
21267;DHT22;10791;53.108;18.326;2023-02-03T09:01:28;0.60;99.90
21267;DHT22;10791;53.108;18.326;2023-02-03T09:06:32;0.70;99.90
21267;DHT22;10791;53.108;18.326;2023-02-03T09:11:35;0.70;99.90
21267;DHT22;10791;53.108;18.326;2023-02-03T09:16:39;0.70;99.90
21267;DHT22;10791;53.108;18.326;2023-02-03T09:21:42;0.70;99.90
21267;DHT22;10791;53.108;18.326;2023-02-03T09:26:50;0.70;99.90
21267;DHT22;10791;53.108;18.326;2023-02-03T09:31:53;0.70;99.90
21267;DHT22;10791;53.108;18.326;2023-02-03T09:36:57;0.80;99.90
21267;DHT22;10791;53.108;18.326;2023-02-03T09:47:36;0.80;99.90
21267;DHT22;10791;53.108;18.326;2023-02-03T09:52:41;0.80;99.90
21267;DHT22;10791;53.108;18.326;2023-02-03T09:57:57;0.80;99.90
21267;DHT22;10791;53.108;18.326;2023-02-03T10:03:12;0.80;99.90
21267;DHT22;10791;53.108;18.326;2023-02-03T10:13:36;0.80;99.90
21267;DHT22;10791;53.108;18.326;2023-02-03T10:18:49;0.80;99.90
21267;DHT22;10791;53.108;18.326;2023-02-03T10:23:54;0.80;99.90
21267;DHT22;10791;53.108;18.326;2023-02-03T10:29:17;0.80;99.90
21267;DHT22;10791;53.108;18.326;2023-02-03T10:34:23;0.80;99.90
21267;DHT22;10791;53.108;18.326;2023-02-03T10:44:41;0.80;99.90
21267;DHT22;10791;53.108;18.326;2023-02-03T10:49:49;0.80;99.90
21267;DHT22;10791;53.108;18.326;2023-02-03T10:54:53;0.90;99.90
21267;DHT22;10791;53.108;18.326;2023-02-03T11:05:21;0.90;99.90
21267;DHT22;10791;53.108;18.326;2023-02-03T11:15:31;0.90;99.90
21267;DHT22;10791;53.108;18.326;2023-02-03T11:20:35;0.90;99.90
21267;DHT22;10791;53.108;18.326;2023-02-03T11:25:38;0.90;99.90
21267;DHT22;10791;53.108;18.326;2023-02-03T11:30:42;0.90;99.90
21267;DHT22;10791;53.108;18.326;2023-02-03T11:35:57;0.90;99.90
21267;DHT22;10791;53.108;18.326;2023-02-03T11:41:02;1.00;99.90
21267;DHT22;10791;53.108;18.326;2023-02-03T11:46:05;1.00;99.90
21267;DHT22;10791;53.108;18.326;2023-02-03T11:51:28;1.00;99.90
21267;DHT22;10791;53.108;18.326;2023-02-03T12:29:09;0.80;99.90
21267;DHT22;10791;53.108;18.326;2023-02-03T12:34:40;0.80;99.90
21267;DHT22;10791;53.108;18.326;2023-02-03T12:39:52;0.90;99.90
21267;DHT22;10791;53.108;18.326;2023-02-03T12:45:02;0.90;99.90
21267;DHT22;10791;53.108;18.326;2023-02-03T12:50:15;0.90;99.90
21267;DHT22;10791;53.108;18.326;2023-02-03T12:56:06;1.00;99.90
21267;DHT22;10791;53.108;18.326;2023-02-03T13:17:22;1.00;99.90
21267;DHT22;10791;53.108;18.326;2023-02-03T13:22:28;1.20;99.90
21267;DHT22;10791;53.108;18.326;2023-02-03T13:38:41;1.30;99.90
21267;DHT22;10791;53.108;18.326;2023-02-03T13:43:49;1.40;99.90
21267;DHT22;10791;53.108;18.326;2023-02-03T13:48:58;1.40;99.90
21267;DHT22;10791;53.108;18.326;2023-02-03T13:54:11;1.40;99.90
21267;DHT22;10791;53.108;18.326;2023-02-03T14:24:54;1.50;99.90
21267;DHT22;10791;53.108;18.326;2023-02-03T14:30:16;1.50;99.90
21267;DHT22;10791;53.108;18.326;2023-02-03T14:35:30;1.50;99.90
21267;DHT22;10791;53.108;18.326;2023-02-03T14:41:01;1.50;99.90
21267;DHT22;10791;53.108;18.326;2023-02-03T15:07:07;1.70;99.90
21267;DHT22;10791;53.108;18.326;2023-02-03T15:12:21;1.60;99.90
21267;DHT22;10791;53.108;18.326;2023-02-03T15:17:28;1.70;99.90
21267;DHT22;10791;53.108;18.326;2023-02-03T15:22:39;1.70;99.90
21267;DHT22;10791;53.108;18.326;2023-02-03T15:27:45;1.70;99.90
21267;DHT22;10791;53.108;18.326;2023-02-03T15:33:03;1.60;99.90
21267;DHT22;10791;53.108;18.326;2023-02-03T15:38:16;1.70;99.90
21267;DHT22;10791;53.108;18.326;2023-02-03T15:43:32;1.60;99.90
21267;DHT22;10791;53.108;18.326;2023-02-03T15:48:44;1.60;99.90
21267;DHT22;10791;53.108;18.326;2023-02-03T15:53:56;1.60;99.90
21267;DHT22;10791;53.108;18.326;2023-02-03T15:59:01;1.60;99.90
21267;DHT22;10791;53.108;18.326;2023-02-03T16:04:08;1.60;99.90
21267;DHT22;10791;53.108;18.326;2023-02-03T16:09:33;1.60;99.90
21267;DHT22;10791;53.108;18.326;2023-02-03T16:14:44;1.50;99.90
21267;DHT22;10791;53.108;18.326;2023-02-03T16:20:02;1.50;99.90
21267;DHT22;10791;53.108;18.326;2023-02-03T16:25:21;1.50;99.90
21267;DHT22;10791;53.108;18.326;2023-02-03T16:30:25;1.50;99.90
21267;DHT22;10791;53.108;18.326;2023-02-03T16:35:46;1.50;99.90
21267;DHT22;10791;53.108;18.326;2023-02-03T16:41:15;1.50;99.90
21267;DHT22;10791;53.108;18.326;2023-02-03T16:46:38;1.50;99.90
21267;DHT22;10791;53.108;18.326;2023-02-03T16:52:00;1.50;99.90
21267;DHT22;10791;53.108;18.326;2023-02-03T16:57:04;1.40;99.90
21267;DHT22;10791;53.108;18.326;2023-02-03T17:02:09;1.40;99.90
21267;DHT22;10791;53.108;18.326;2023-02-03T17:07:13;1.40;99.90
21267;DHT22;10791;53.108;18.326;2023-02-03T17:12:16;1.40;99.90
21267;DHT22;10791;53.108;18.326;2023-02-03T17:17:19;1.30;99.90
21267;DHT22;10791;53.108;18.326;2023-02-03T17:22:23;1.30;99.90
21267;DHT22;10791;53.108;18.326;2023-02-03T17:27:27;1.30;99.90
21267;DHT22;10791;53.108;18.326;2023-02-03T17:32:30;1.30;99.90
21267;DHT22;10791;53.108;18.326;2023-02-03T17:37:35;1.30;99.90
21267;DHT22;10791;53.108;18.326;2023-02-03T17:42:39;1.30;99.90
21267;DHT22;10791;53.108;18.326;2023-02-03T17:48:02;1.30;99.90
21267;DHT22;10791;53.108;18.326;2023-02-03T17:53:23;1.30;99.90
21267;DHT22;10791;53.108;18.326;2023-02-03T17:58:27;1.30;99.90
21267;DHT22;10791;53.108;18.326;2023-02-03T18:03:35;1.30;99.90
21267;DHT22;10791;53.108;18.326;2023-02-03T18:08:44;1.40;99.90
21267;DHT22;10791;53.108;18.326;2023-02-03T18:13:51;1.40;99.90
21267;DHT22;10791;53.108;18.326;2023-02-03T18:18:59;1.40;99.90
21267;DHT22;10791;53.108;18.326;2023-02-03T18:24:07;1.30;99.90
21267;DHT22;10791;53.108;18.326;2023-02-03T18:29:19;1.30;99.90
21267;DHT22;10791;53.108;18.326;2023-02-03T18:34:27;1.30;99.90
21267;DHT22;10791;53.108;18.326;2023-02-03T18:39:33;1.30;99.90
21267;DHT22;10791;53.108;18.326;2023-02-03T18:44:38;1.40;99.90
21267;DHT22;10791;53.108;18.326;2023-02-03T18:49:43;1.30;99.90
21267;DHT22;10791;53.108;18.326;2023-02-03T18:54:50;1.30;99.90
21267;DHT22;10791;53.108;18.326;2023-02-03T18:59:55;1.30;99.90
21267;DHT22;10791;53.108;18.326;2023-02-03T19:05:00;1.30;99.90
21267;DHT22;10791;53.108;18.326;2023-02-03T19:10:05;1.30;99.90
21267;DHT22;10791;53.108;18.326;2023-02-03T19:15:13;1.20;99.90
21267;DHT22;10791;53.108;18.326;2023-02-03T19:20:18;1.20;99.90
21267;DHT22;10791;53.108;18.326;2023-02-03T19:25:27;1.20;99.90
21267;DHT22;10791;53.108;18.326;2023-02-03T19:30:32;1.20;99.90
21267;DHT22;10791;53.108;18.326;2023-02-03T19:35:37;1.20;99.90
21267;DHT22;10791;53.108;18.326;2023-02-03T19:40:50;1.10;99.90
21267;DHT22;10791;53.108;18.326;2023-02-03T19:45:56;1.10;99.90
21267;DHT22;10791;53.108;18.326;2023-02-03T19:51:05;1.10;99.90
21267;DHT22;10791;53.108;18.326;2023-02-03T19:56:21;1.10;99.90
21267;DHT22;10791;53.108;18.326;2023-02-03T20:01:26;1.10;99.90
21267;DHT22;10791;53.108;18.326;2023-02-03T20:06:35;1.00;99.90
21267;DHT22;10791;53.108;18.326;2023-02-03T20:11:41;1.00;99.90
21267;DHT22;10791;53.108;18.326;2023-02-03T20:16:53;1.00;99.90
21267;DHT22;10791;53.108;18.326;2023-02-03T20:22:02;0.90;99.90
21267;DHT22;10791;53.108;18.326;2023-02-03T20:27:08;0.90;99.90
21267;DHT22;10791;53.108;18.326;2023-02-03T20:32:14;0.80;99.90
21267;DHT22;10791;53.108;18.326;2023-02-03T20:37:23;0.80;99.90
21267;DHT22;10791;53.108;18.326;2023-02-03T20:42:31;0.70;99.90
21267;DHT22;10791;53.108;18.326;2023-02-03T20:47:38;0.70;99.90
21267;DHT22;10791;53.108;18.326;2023-02-03T20:52:50;0.60;99.90
21267;DHT22;10791;53.108;18.326;2023-02-03T20:57:58;0.60;99.90
21267;DHT22;10791;53.108;18.326;2023-02-03T21:03:12;0.50;99.90
21267;DHT22;10791;53.108;18.326;2023-02-03T21:08:38;0.50;99.90
21267;DHT22;10791;53.108;18.326;2023-02-03T21:13:44;0.40;99.90
21267;DHT22;10791;53.108;18.326;2023-02-03T21:18:53;0.30;99.90
21267;DHT22;10791;53.108;18.326;2023-02-03T21:24:22;0.30;99.90
21267;DHT22;10791;53.108;18.326;2023-02-03T21:29:31;0.20;99.90
21267;DHT22;10791;53.108;18.326;2023-02-03T21:34:42;0.20;99.90
21267;DHT22;10791;53.108;18.326;2023-02-03T21:39:49;0.10;99.90
21267;DHT22;10791;53.108;18.326;2023-02-03T21:44:54;0.10;99.90
21267;DHT22;10791;53.108;18.326;2023-02-03T21:49:59;0.10;99.90
21267;DHT22;10791;53.108;18.326;2023-02-03T21:55:11;0.00;99.90
21267;DHT22;10791;53.108;18.326;2023-02-03T22:00:41;0.10;99.90
21267;DHT22;10791;53.108;18.326;2023-02-03T22:05:51;0.10;99.90
21267;DHT22;10791;53.108;18.326;2023-02-03T22:10:55;0.00;99.90
21267;DHT22;10791;53.108;18.326;2023-02-03T22:15:59;0.00;99.90
21267;DHT22;10791;53.108;18.326;2023-02-03T22:21:10;0.00;99.90
21267;DHT22;10791;53.108;18.326;2023-02-03T22:26:17;-0.10;99.90
21267;DHT22;10791;53.108;18.326;2023-02-03T22:31:21;-0.10;99.90
21267;DHT22;10791;53.108;18.326;2023-02-03T22:36:24;-0.10;99.90
21267;DHT22;10791;53.108;18.326;2023-02-03T22:41:30;-0.20;99.90
21267;DHT22;10791;53.108;18.326;2023-02-03T22:46:34;-0.20;99.90
21267;DHT22;10791;53.108;18.326;2023-02-03T22:51:38;-0.20;99.90
21267;DHT22;10791;53.108;18.326;2023-02-03T22:56:42;-0.20;99.90
21267;DHT22;10791;53.108;18.326;2023-02-03T23:01:45;-0.30;99.90
21267;DHT22;10791;53.108;18.326;2023-02-03T23:06:48;-0.30;99.90
21267;DHT22;10791;53.108;18.326;2023-02-03T23:11:52;-0.30;99.90
21267;DHT22;10791;53.108;18.326;2023-02-03T23:16:55;-0.30;99.90
21267;DHT22;10791;53.108;18.326;2023-02-03T23:25:11;-0.40;99.90
21267;DHT22;10791;53.108;18.326;2023-02-03T23:30:27;-0.40;99.90
21267;DHT22;10791;53.108;18.326;2023-02-03T23:35:42;-0.40;99.90
21267;DHT22;10791;53.108;18.326;2023-02-03T23:40:57;-0.40;99.90
21267;DHT22;10791;53.108;18.326;2023-02-03T23:46:28;-0.40;99.90
21267;DHT22;10791;53.108;18.326;2023-02-03T23:51:41;-0.60;99.90
21267;DHT22;10791;53.108;18.326;2023-02-03T23:56:50;-0.60;99.90
